sensor_id;sensor_type;location;lat;lon;timestamp;P1;durP1;ratioP1;P2;durP2;ratioP2
14394;SDS011;7282;49.204;10.652;2023-03-09T00:01:31;2.30;;;2.10;;
14394;SDS011;7282;49.204;10.652;2023-03-09T00:03:59;1.90;;;1.80;;
14394;SDS011;7282;49.204;10.652;2023-03-09T00:06:26;2.13;;;1.93;;
14394;SDS011;7282;49.204;10.652;2023-03-09T00:08:53;1.83;;;1.73;;
14394;SDS011;7282;49.204;10.652;2023-03-09T00:11:20;1.90;;;1.77;;
14394;SDS011;7282;49.204;10.652;2023-03-09T00:13:47;2.00;;;1.90;;
14394;SDS011;7282;49.204;10.652;2023-03-09T00:16:15;2.00;;;1.90;;
14394;SDS011;7282;49.204;10.652;2023-03-09T00:18:42;2.10;;;1.90;;
14394;SDS011;7282;49.204;10.652;2023-03-09T00:21:09;2.30;;;2.10;;
14394;SDS011;7282;49.204;10.652;2023-03-09T00:23:37;2.00;;;1.90;;
14394;SDS011;7282;49.204;10.652;2023-03-09T00:26:05;2.53;;;2.30;;
14394;SDS011;7282;49.204;10.652;2023-03-09T00:28:32;2.67;;;2.30;;
14394;SDS011;7282;49.204;10.652;2023-03-09T00:31:03;2.63;;;2.43;;
14394;SDS011;7282;49.204;10.652;2023-03-09T00:33:30;3.20;;;2.40;;
14394;SDS011;7282;49.204;10.652;2023-03-09T00:35:57;2.83;;;2.30;;
14394;SDS011;7282;49.204;10.652;2023-03-09T00:38:24;2.57;;;2.37;;
14394;SDS011;7282;49.204;10.652;2023-03-09T00:40:50;2.73;;;2.53;;
14394;SDS011;7282;49.204;10.652;2023-03-09T00:43:17;3.20;;;2.73;;
14394;SDS011;7282;49.204;10.652;2023-03-09T00:45:44;3.07;;;2.70;;
14394;SDS011;7282;49.204;10.652;2023-03-09T00:48:11;2.50;;;2.30;;
14394;SDS011;7282;49.204;10.652;2023-03-09T00:50:37;4.27;;;2.80;;
14394;SDS011;7282;49.204;10.652;2023-03-09T00:53:04;3.00;;;2.67;;
14394;SDS011;7282;49.204;10.652;2023-03-09T00:55:31;4.77;;;3.00;;
14394;SDS011;7282;49.204;10.652;2023-03-09T00:57:57;3.97;;;2.80;;
14394;SDS011;7282;49.204;10.652;2023-03-09T01:00:24;2.60;;;2.27;;
14394;SDS011;7282;49.204;10.652;2023-03-09T01:02:51;2.93;;;2.50;;
14394;SDS011;7282;49.204;10.652;2023-03-09T01:05:20;3.00;;;2.50;;
14394;SDS011;7282;49.204;10.652;2023-03-09T01:07:46;3.63;;;2.50;;
14394;SDS011;7282;49.204;10.652;2023-03-09T01:10:13;2.60;;;2.40;;
14394;SDS011;7282;49.204;10.652;2023-03-09T01:12:40;3.50;;;2.80;;
14394;SDS011;7282;49.204;10.652;2023-03-09T01:15:06;5.87;;;3.50;;
14394;SDS011;7282;49.204;10.652;2023-03-09T01:17:33;6.93;;;3.50;;
14394;SDS011;7282;49.204;10.652;2023-03-09T01:20:00;8.10;;;3.60;;
14394;SDS011;7282;49.204;10.652;2023-03-09T01:22:26;8.33;;;3.60;;
14394;SDS011;7282;49.204;10.652;2023-03-09T01:24:53;2.17;;;1.40;;
14394;SDS011;7282;49.204;10.652;2023-03-09T01:27:20;2.73;;;1.60;;
14394;SDS011;7282;49.204;10.652;2023-03-09T01:29:47;1.50;;;0.97;;
14394;SDS011;7282;49.204;10.652;2023-03-09T01:32:13;1.30;;;1.20;;
14394;SDS011;7282;49.204;10.652;2023-03-09T01:34:40;4.03;;;1.30;;
14394;SDS011;7282;49.204;10.652;2023-03-09T01:37:07;2.23;;;1.03;;
14394;SDS011;7282;49.204;10.652;2023-03-09T01:39:34;0.90;;;0.90;;
14394;SDS011;7282;49.204;10.652;2023-03-09T01:42:00;1.00;;;1.00;;
14394;SDS011;7282;49.204;10.652;2023-03-09T01:44:27;1.10;;;1.00;;
14394;SDS011;7282;49.204;10.652;2023-03-09T01:46:55;1.20;;;1.10;;
14394;SDS011;7282;49.204;10.652;2023-03-09T01:49:39;1.33;;;1.07;;
14394;SDS011;7282;49.204;10.652;2023-03-09T01:52:12;1.17;;;1.00;;
14394;SDS011;7282;49.204;10.652;2023-03-09T01:54:54;1.80;;;1.30;;
14394;SDS011;7282;49.204;10.652;2023-03-09T01:57:30;2.40;;;1.40;;
14394;SDS011;7282;49.204;10.652;2023-03-09T01:59:58;1.53;;;1.10;;
14394;SDS011;7282;49.204;10.652;2023-03-09T02:02:26;2.20;;;1.37;;
14394;SDS011;7282;49.204;10.652;2023-03-09T02:04:55;1.90;;;1.40;;
14394;SDS011;7282;49.204;10.652;2023-03-09T02:07:23;1.87;;;1.37;;
14394;SDS011;7282;49.204;10.652;2023-03-09T02:09:56;1.33;;;1.23;;
14394;SDS011;7282;49.204;10.652;2023-03-09T02:12:24;1.20;;;1.10;;
14394;SDS011;7282;49.204;10.652;2023-03-09T02:14:51;1.67;;;1.30;;
14394;SDS011;7282;49.204;10.652;2023-03-09T02:17:18;1.77;;;1.30;;
14394;SDS011;7282;49.204;10.652;2023-03-09T02:22:31;3.43;;;1.43;;
14394;SDS011;7282;49.204;10.652;2023-03-09T02:25:14;1.30;;;1.20;;
14394;SDS011;7282;49.204;10.652;2023-03-09T02:27:39;1.80;;;1.30;;
14394;SDS011;7282;49.204;10.652;2023-03-09T02:30:06;2.23;;;1.40;;
14394;SDS011;7282;49.204;10.652;2023-03-09T02:32:33;1.30;;;1.20;;
14394;SDS011;7282;49.204;10.652;2023-03-09T02:35:00;2.03;;;1.40;;
14394;SDS011;7282;49.204;10.652;2023-03-09T02:37:29;1.30;;;1.20;;
14394;SDS011;7282;49.204;10.652;2023-03-09T02:39:56;1.50;;;1.40;;
14394;SDS011;7282;49.204;10.652;2023-03-09T02:42:23;1.50;;;1.40;;
14394;SDS011;7282;49.204;10.652;2023-03-09T02:44:50;1.40;;;1.20;;
14394;SDS011;7282;49.204;10.652;2023-03-09T02:47:18;1.60;;;1.50;;
14394;SDS011;7282;49.204;10.652;2023-03-09T02:49:45;1.83;;;1.47;;
14394;SDS011;7282;49.204;10.652;2023-03-09T02:52:11;2.80;;;1.93;;
14394;SDS011;7282;49.204;10.652;2023-03-09T02:54:38;2.07;;;1.50;;
14394;SDS011;7282;49.204;10.652;2023-03-09T02:57:05;2.53;;;1.60;;
14394;SDS011;7282;49.204;10.652;2023-03-09T02:59:32;1.80;;;1.70;;
14394;SDS011;7282;49.204;10.652;2023-03-09T03:01:59;1.70;;;1.50;;
14394;SDS011;7282;49.204;10.652;2023-03-09T03:04:25;2.20;;;1.60;;
14394;SDS011;7282;49.204;10.652;2023-03-09T03:06:52;3.13;;;1.57;;
14394;SDS011;7282;49.204;10.652;2023-03-09T03:09:19;1.77;;;1.30;;
14394;SDS011;7282;49.204;10.652;2023-03-09T03:11:45;1.63;;;1.40;;
14394;SDS011;7282;49.204;10.652;2023-03-09T03:14:12;3.00;;;1.50;;
14394;SDS011;7282;49.204;10.652;2023-03-09T03:16:39;2.17;;;1.43;;
14394;SDS011;7282;49.204;10.652;2023-03-09T03:19:05;1.30;;;1.20;;
14394;SDS011;7282;49.204;10.652;2023-03-09T03:21:32;1.60;;;1.50;;
14394;SDS011;7282;49.204;10.652;2023-03-09T03:23:59;1.70;;;1.23;;
14394;SDS011;7282;49.204;10.652;2023-03-09T03:26:26;1.93;;;1.30;;
14394;SDS011;7282;49.204;10.652;2023-03-09T03:28:53;1.50;;;1.40;;
14394;SDS011;7282;49.204;10.652;2023-03-09T03:31:19;1.20;;;1.00;;
14394;SDS011;7282;49.204;10.652;2023-03-09T03:33:46;1.57;;;1.20;;
14394;SDS011;7282;49.204;10.652;2023-03-09T03:36:13;1.03;;;1.00;;
14394;SDS011;7282;49.204;10.652;2023-03-09T03:38:39;2.00;;;1.10;;
14394;SDS011;7282;49.204;10.652;2023-03-09T03:41:06;2.23;;;0.87;;
14394;SDS011;7282;49.204;10.652;2023-03-09T03:43:33;2.60;;;1.40;;
14394;SDS011;7282;49.204;10.652;2023-03-09T03:46:00;0.90;;;0.90;;
14394;SDS011;7282;49.204;10.652;2023-03-09T03:48:26;3.03;;;1.33;;
14394;SDS011;7282;49.204;10.652;2023-03-09T03:50:53;2.10;;;1.23;;
14394;SDS011;7282;49.204;10.652;2023-03-09T03:53:20;1.00;;;1.00;;
14394;SDS011;7282;49.204;10.652;2023-03-09T03:55:46;1.70;;;1.17;;
14394;SDS011;7282;49.204;10.652;2023-03-09T03:58:13;2.10;;;1.00;;
14394;SDS011;7282;49.204;10.652;2023-03-09T04:00:40;0.93;;;0.93;;
14394;SDS011;7282;49.204;10.652;2023-03-09T04:03:06;2.13;;;0.90;;
14394;SDS011;7282;49.204;10.652;2023-03-09T04:05:33;1.10;;;1.00;;
14394;SDS011;7282;49.204;10.652;2023-03-09T04:08:00;1.37;;;0.80;;
14394;SDS011;7282;49.204;10.652;2023-03-09T04:10:30;1.87;;;1.27;;
14394;SDS011;7282;49.204;10.652;2023-03-09T04:12:56;0.90;;;0.90;;
14394;SDS011;7282;49.204;10.652;2023-03-09T04:15:23;1.10;;;1.00;;
14394;SDS011;7282;49.204;10.652;2023-03-09T04:17:50;1.10;;;1.00;;
14394;SDS011;7282;49.204;10.652;2023-03-09T04:20:17;0.90;;;0.90;;
14394;SDS011;7282;49.204;10.652;2023-03-09T04:22:44;1.03;;;0.90;;
14394;SDS011;7282;49.204;10.652;2023-03-09T04:25:11;0.90;;;0.90;;
14394;SDS011;7282;49.204;10.652;2023-03-09T04:27:38;1.17;;;0.93;;
14394;SDS011;7282;49.204;10.652;2023-03-09T04:30:05;0.80;;;0.80;;
14394;SDS011;7282;49.204;10.652;2023-03-09T04:32:32;1.60;;;1.10;;
14394;SDS011;7282;49.204;10.652;2023-03-09T04:34:59;1.13;;;1.13;;
14394;SDS011;7282;49.204;10.652;2023-03-09T04:37:25;0.90;;;0.90;;
14394;SDS011;7282;49.204;10.652;2023-03-09T04:39:52;1.10;;;1.00;;
14394;SDS011;7282;49.204;10.652;2023-03-09T04:42:19;1.37;;;0.97;;
14394;SDS011;7282;49.204;10.652;2023-03-09T04:44:46;2.07;;;0.90;;
14394;SDS011;7282;49.204;10.652;2023-03-09T04:47:13;0.90;;;0.90;;
14394;SDS011;7282;49.204;10.652;2023-03-09T04:49:40;1.87;;;1.27;;
14394;SDS011;7282;49.204;10.652;2023-03-09T04:52:07;1.40;;;1.30;;
14394;SDS011;7282;49.204;10.652;2023-03-09T04:54:34;1.47;;;1.30;;
14394;SDS011;7282;49.204;10.652;2023-03-09T04:57:01;1.97;;;1.30;;
14394;SDS011;7282;49.204;10.652;2023-03-09T04:59:27;2.70;;;1.90;;
14394;SDS011;7282;49.204;10.652;2023-03-09T05:01:54;3.87;;;2.03;;
14394;SDS011;7282;49.204;10.652;2023-03-09T05:04:21;1.97;;;1.60;;
14394;SDS011;7282;49.204;10.652;2023-03-09T05:06:47;1.30;;;1.20;;
14394;SDS011;7282;49.204;10.652;2023-03-09T05:09:14;1.20;;;1.10;;
14394;SDS011;7282;49.204;10.652;2023-03-09T05:11:41;1.40;;;1.30;;
14394;SDS011;7282;49.204;10.652;2023-03-09T05:14:08;1.40;;;1.30;;
14394;SDS011;7282;49.204;10.652;2023-03-09T05:16:35;1.53;;;1.40;;
14394;SDS011;7282;49.204;10.652;2023-03-09T05:19:01;2.23;;;1.60;;
14394;SDS011;7282;49.204;10.652;2023-03-09T05:21:28;2.63;;;1.60;;
14394;SDS011;7282;49.204;10.652;2023-03-09T05:23:55;1.67;;;1.47;;
14394;SDS011;7282;49.204;10.652;2023-03-09T05:26:22;1.70;;;1.30;;
14394;SDS011;7282;49.204;10.652;2023-03-09T05:28:48;1.60;;;1.50;;
14394;SDS011;7282;49.204;10.652;2023-03-09T05:31:15;2.00;;;1.70;;
14394;SDS011;7282;49.204;10.652;2023-03-09T05:33:42;2.40;;;1.67;;
14394;SDS011;7282;49.204;10.652;2023-03-09T05:36:16;1.70;;;1.60;;
14394;SDS011;7282;49.204;10.652;2023-03-09T05:38:42;3.23;;;1.87;;
14394;SDS011;7282;49.204;10.652;2023-03-09T05:41:09;2.63;;;2.07;;
14394;SDS011;7282;49.204;10.652;2023-03-09T05:43:36;2.43;;;2.00;;
14394;SDS011;7282;49.204;10.652;2023-03-09T05:46:05;3.10;;;1.90;;
14394;SDS011;7282;49.204;10.652;2023-03-09T05:48:31;2.50;;;2.30;;
14394;SDS011;7282;49.204;10.652;2023-03-09T05:51:01;3.00;;;2.40;;
14394;SDS011;7282;49.204;10.652;2023-03-09T05:53:28;3.23;;;2.20;;
14394;SDS011;7282;49.204;10.652;2023-03-09T05:55:58;2.57;;;2.37;;
14394;SDS011;7282;49.204;10.652;2023-03-09T05:58:24;2.77;;;2.50;;
14394;SDS011;7282;49.204;10.652;2023-03-09T06:00:51;3.47;;;2.63;;
14394;SDS011;7282;49.204;10.652;2023-03-09T06:03:19;2.90;;;2.50;;
14394;SDS011;7282;49.204;10.652;2023-03-09T06:05:45;3.93;;;2.80;;
14394;SDS011;7282;49.204;10.652;2023-03-09T06:08:12;4.47;;;3.10;;
14394;SDS011;7282;49.204;10.652;2023-03-09T06:10:39;4.43;;;2.93;;
14394;SDS011;7282;49.204;10.652;2023-03-09T06:13:06;3.60;;;2.83;;
14394;SDS011;7282;49.204;10.652;2023-03-09T06:15:33;5.17;;;2.93;;
14394;SDS011;7282;49.204;10.652;2023-03-09T06:17:59;2.70;;;2.50;;
14394;SDS011;7282;49.204;10.652;2023-03-09T06:20:26;4.43;;;2.80;;
14394;SDS011;7282;49.204;10.652;2023-03-09T06:22:53;6.23;;;3.00;;
14394;SDS011;7282;49.204;10.652;2023-03-09T06:25:19;2.30;;;2.10;;
14394;SDS011;7282;49.204;10.652;2023-03-09T06:27:46;3.37;;;2.30;;
14394;SDS011;7282;49.204;10.652;2023-03-09T06:30:13;3.10;;;2.73;;
14394;SDS011;7282;49.204;10.652;2023-03-09T06:32:40;4.03;;;2.20;;
14394;SDS011;7282;49.204;10.652;2023-03-09T06:35:07;5.93;;;2.43;;
14394;SDS011;7282;49.204;10.652;2023-03-09T06:37:33;4.57;;;2.80;;
14394;SDS011;7282;49.204;10.652;2023-03-09T06:40:00;5.83;;;3.13;;
14394;SDS011;7282;49.204;10.652;2023-03-09T06:42:27;4.50;;;2.50;;
14394;SDS011;7282;49.204;10.652;2023-03-09T06:44:53;6.43;;;3.20;;
14394;SDS011;7282;49.204;10.652;2023-03-09T06:47:20;5.43;;;2.60;;
14394;SDS011;7282;49.204;10.652;2023-03-09T06:49:47;7.27;;;2.80;;
14394;SDS011;7282;49.204;10.652;2023-03-09T06:52:13;4.87;;;2.83;;
14394;SDS011;7282;49.204;10.652;2023-03-09T06:54:40;4.63;;;2.63;;
14394;SDS011;7282;49.204;10.652;2023-03-09T06:57:07;5.57;;;2.40;;
14394;SDS011;7282;49.204;10.652;2023-03-09T06:59:34;4.57;;;2.20;;
14394;SDS011;7282;49.204;10.652;2023-03-09T07:02:00;6.57;;;2.80;;
14394;SDS011;7282;49.204;10.652;2023-03-09T07:04:27;4.97;;;2.67;;
14394;SDS011;7282;49.204;10.652;2023-03-09T07:06:54;6.20;;;2.73;;
14394;SDS011;7282;49.204;10.652;2023-03-09T07:09:20;4.60;;;2.27;;
14394;SDS011;7282;49.204;10.652;2023-03-09T07:11:47;3.73;;;2.40;;
14394;SDS011;7282;49.204;10.652;2023-03-09T07:14:14;6.23;;;3.00;;
14394;SDS011;7282;49.204;10.652;2023-03-09T07:16:41;8.83;;;2.67;;
14394;SDS011;7282;49.204;10.652;2023-03-09T07:19:09;4.87;;;2.63;;
14394;SDS011;7282;49.204;10.652;2023-03-09T07:21:35;8.50;;;3.07;;
14394;SDS011;7282;49.204;10.652;2023-03-09T07:24:02;4.10;;;2.40;;
14394;SDS011;7282;49.204;10.652;2023-03-09T07:26:29;5.40;;;2.60;;
14394;SDS011;7282;49.204;10.652;2023-03-09T07:28:55;9.10;;;3.03;;
14394;SDS011;7282;49.204;10.652;2023-03-09T07:31:22;7.80;;;3.27;;
14394;SDS011;7282;49.204;10.652;2023-03-09T07:33:50;6.67;;;2.70;;
14394;SDS011;7282;49.204;10.652;2023-03-09T07:36:16;6.67;;;3.10;;
14394;SDS011;7282;49.204;10.652;2023-03-09T07:38:43;11.13;;;3.50;;
14394;SDS011;7282;49.204;10.652;2023-03-09T07:41:10;7.30;;;2.50;;
14394;SDS011;7282;49.204;10.652;2023-03-09T07:43:36;8.00;;;2.73;;
14394;SDS011;7282;49.204;10.652;2023-03-09T07:46:05;5.43;;;2.83;;
14394;SDS011;7282;49.204;10.652;2023-03-09T07:48:32;9.63;;;3.33;;
14394;SDS011;7282;49.204;10.652;2023-03-09T07:50:59;6.73;;;3.00;;
14394;SDS011;7282;49.204;10.652;2023-03-09T07:53:29;5.07;;;2.33;;
14394;SDS011;7282;49.204;10.652;2023-03-09T07:55:56;11.30;;;3.23;;
14394;SDS011;7282;49.204;10.652;2023-03-09T07:58:23;5.53;;;2.70;;
14394;SDS011;7282;49.204;10.652;2023-03-09T08:00:49;9.83;;;3.70;;
14394;SDS011;7282;49.204;10.652;2023-03-09T08:03:16;10.83;;;3.17;;
14394;SDS011;7282;49.204;10.652;2023-03-09T08:05:43;10.27;;;3.40;;
14394;SDS011;7282;49.204;10.652;2023-03-09T08:08:10;8.17;;;3.47;;
14394;SDS011;7282;49.204;10.652;2023-03-09T08:10:37;5.70;;;3.10;;
14394;SDS011;7282;49.204;10.652;2023-03-09T08:13:04;8.73;;;3.20;;
14394;SDS011;7282;49.204;10.652;2023-03-09T08:15:34;8.37;;;3.50;;
14394;SDS011;7282;49.204;10.652;2023-03-09T08:18:03;8.00;;;2.70;;
14394;SDS011;7282;49.204;10.652;2023-03-09T08:20:30;7.20;;;3.70;;
14394;SDS011;7282;49.204;10.652;2023-03-09T08:22:57;7.37;;;3.20;;
14394;SDS011;7282;49.204;10.652;2023-03-09T08:25:24;10.13;;;3.10;;
14394;SDS011;7282;49.204;10.652;2023-03-09T08:27:51;9.90;;;3.73;;
14394;SDS011;7282;49.204;10.652;2023-03-09T08:30:17;9.60;;;3.17;;
14394;SDS011;7282;49.204;10.652;2023-03-09T08:32:49;7.80;;;3.30;;
14394;SDS011;7282;49.204;10.652;2023-03-09T08:35:21;9.83;;;3.30;;
14394;SDS011;7282;49.204;10.652;2023-03-09T08:37:45;6.30;;;3.07;;
14394;SDS011;7282;49.204;10.652;2023-03-09T08:40:12;6.63;;;3.27;;
14394;SDS011;7282;49.204;10.652;2023-03-09T08:42:39;9.10;;;4.10;;
14394;SDS011;7282;49.204;10.652;2023-03-09T08:45:06;11.47;;;3.10;;
14394;SDS011;7282;49.204;10.652;2023-03-09T08:47:33;8.67;;;3.73;;
14394;SDS011;7282;49.204;10.652;2023-03-09T08:50:00;6.37;;;3.03;;
14394;SDS011;7282;49.204;10.652;2023-03-09T08:52:27;8.57;;;3.10;;
14394;SDS011;7282;49.204;10.652;2023-03-09T08:54:54;7.73;;;3.50;;
14394;SDS011;7282;49.204;10.652;2023-03-09T08:57:22;10.13;;;3.80;;
14394;SDS011;7282;49.204;10.652;2023-03-09T08:59:48;5.63;;;2.47;;
14394;SDS011;7282;49.204;10.652;2023-03-09T09:02:15;10.57;;;3.10;;
14394;SDS011;7282;49.204;10.652;2023-03-09T09:04:42;7.47;;;3.20;;
14394;SDS011;7282;49.204;10.652;2023-03-09T09:07:10;12.47;;;3.47;;
14394;SDS011;7282;49.204;10.652;2023-03-09T09:09:37;7.80;;;3.37;;
14394;SDS011;7282;49.204;10.652;2023-03-09T09:12:04;12.53;;;3.37;;
14394;SDS011;7282;49.204;10.652;2023-03-09T09:14:32;10.90;;;3.83;;
14394;SDS011;7282;49.204;10.652;2023-03-09T09:16:58;10.10;;;3.87;;
14394;SDS011;7282;49.204;10.652;2023-03-09T09:19:26;11.23;;;4.03;;
14394;SDS011;7282;49.204;10.652;2023-03-09T09:21:53;13.87;;;4.43;;
14394;SDS011;7282;49.204;10.652;2023-03-09T09:24:21;8.57;;;3.70;;
14394;SDS011;7282;49.204;10.652;2023-03-09T09:26:48;8.90;;;3.70;;
14394;SDS011;7282;49.204;10.652;2023-03-09T09:29:15;7.53;;;3.27;;
14394;SDS011;7282;49.204;10.652;2023-03-09T09:31:41;11.43;;;3.53;;
14394;SDS011;7282;49.204;10.652;2023-03-09T09:34:09;7.23;;;3.10;;
14394;SDS011;7282;49.204;10.652;2023-03-09T09:36:35;9.57;;;3.20;;
14394;SDS011;7282;49.204;10.652;2023-03-09T09:39:04;9.57;;;3.20;;
14394;SDS011;7282;49.204;10.652;2023-03-09T09:41:41;8.27;;;2.90;;
14394;SDS011;7282;49.204;10.652;2023-03-09T09:44:15;6.57;;;3.23;;
14394;SDS011;7282;49.204;10.652;2023-03-09T09:46:42;8.17;;;3.47;;
14394;SDS011;7282;49.204;10.652;2023-03-09T09:49:15;11.00;;;3.43;;
14394;SDS011;7282;49.204;10.652;2023-03-09T09:54:26;7.87;;;3.60;;
14394;SDS011;7282;49.204;10.652;2023-03-09T09:56:55;11.73;;;3.30;;
14394;SDS011;7282;49.204;10.652;2023-03-09T10:02:03;5.30;;;3.90;;
14394;SDS011;7282;49.204;10.652;2023-03-09T10:04:25;9.03;;;3.80;;
14394;SDS011;7282;49.204;10.652;2023-03-09T10:06:50;8.53;;;3.13;;
14394;SDS011;7282;49.204;10.652;2023-03-09T10:09:25;7.57;;;3.70;;
14394;SDS011;7282;49.204;10.652;2023-03-09T10:11:49;7.03;;;2.83;;
14394;SDS011;7282;49.204;10.652;2023-03-09T10:16:59;8.30;;;3.40;;
14394;SDS011;7282;49.204;10.652;2023-03-09T10:19:18;6.47;;;2.33;;
14394;SDS011;7282;49.204;10.652;2023-03-09T10:24:22;5.00;;;2.37;;
14394;SDS011;7282;49.204;10.652;2023-03-09T10:26:51;3.57;;;2.30;;
14394;SDS011;7282;49.204;10.652;2023-03-09T10:29:20;5.77;;;2.77;;
14394;SDS011;7282;49.204;10.652;2023-03-09T10:31:57;4.13;;;2.77;;
14394;SDS011;7282;49.204;10.652;2023-03-09T10:34:22;2.50;;;1.77;;
14394;SDS011;7282;49.204;10.652;2023-03-09T10:37:00;5.77;;;2.43;;
14394;SDS011;7282;49.204;10.652;2023-03-09T10:39:34;3.27;;;2.03;;
14394;SDS011;7282;49.204;10.652;2023-03-09T10:42:11;5.57;;;1.90;;
14394;SDS011;7282;49.204;10.652;2023-03-09T10:44:30;3.67;;;1.83;;
14394;SDS011;7282;49.204;10.652;2023-03-09T10:46:58;4.10;;;2.20;;
14394;SDS011;7282;49.204;10.652;2023-03-09T10:49:25;4.33;;;1.93;;
14394;SDS011;7282;49.204;10.652;2023-03-09T10:52:06;6.53;;;3.03;;
14394;SDS011;7282;49.204;10.652;2023-03-09T10:54:32;9.17;;;3.73;;
14394;SDS011;7282;49.204;10.652;2023-03-09T10:56:58;3.37;;;1.90;;
14394;SDS011;7282;49.204;10.652;2023-03-09T10:59:27;6.47;;;2.30;;
14394;SDS011;7282;49.204;10.652;2023-03-09T11:01:55;5.77;;;2.60;;
14394;SDS011;7282;49.204;10.652;2023-03-09T11:07:15;5.27;;;1.90;;
14394;SDS011;7282;49.204;10.652;2023-03-09T11:09:31;4.80;;;2.43;;
14394;SDS011;7282;49.204;10.652;2023-03-09T11:12:08;5.77;;;2.10;;
14394;SDS011;7282;49.204;10.652;2023-03-09T11:14:58;5.30;;;1.90;;
14394;SDS011;7282;49.204;10.652;2023-03-09T11:17:04;5.67;;;2.60;;
14394;SDS011;7282;49.204;10.652;2023-03-09T11:19:30;6.50;;;3.30;;
14394;SDS011;7282;49.204;10.652;2023-03-09T11:24:36;5.03;;;2.60;;
14394;SDS011;7282;49.204;10.652;2023-03-09T11:27:11;4.23;;;2.00;;
14394;SDS011;7282;49.204;10.652;2023-03-09T11:32:11;3.83;;;2.00;;
14394;SDS011;7282;49.204;10.652;2023-03-09T11:34:35;3.33;;;1.93;;
14394;SDS011;7282;49.204;10.652;2023-03-09T11:42:10;4.07;;;2.20;;
14394;SDS011;7282;49.204;10.652;2023-03-09T11:44:43;2.33;;;1.67;;
14394;SDS011;7282;49.204;10.652;2023-03-09T11:47:11;5.47;;;2.23;;
14394;SDS011;7282;49.204;10.652;2023-03-09T11:49:34;3.63;;;1.80;;
14394;SDS011;7282;49.204;10.652;2023-03-09T11:52:02;3.40;;;2.00;;
14394;SDS011;7282;49.204;10.652;2023-03-09T11:54:34;3.27;;;2.07;;
14394;SDS011;7282;49.204;10.652;2023-03-09T11:57:04;4.53;;;2.23;;
14394;SDS011;7282;49.204;10.652;2023-03-09T12:00:31;2.60;;;1.60;;
14394;SDS011;7282;49.204;10.652;2023-03-09T12:02:11;2.73;;;1.63;;
14394;SDS011;7282;49.204;10.652;2023-03-09T12:04:36;2.57;;;1.90;;
14394;SDS011;7282;49.204;10.652;2023-03-09T12:07:08;2.87;;;1.37;;
14394;SDS011;7282;49.204;10.652;2023-03-09T12:09:35;3.07;;;1.87;;
14394;SDS011;7282;49.204;10.652;2023-03-09T12:12:10;4.33;;;1.90;;
14394;SDS011;7282;49.204;10.652;2023-03-09T12:14:36;2.70;;;1.50;;
14394;SDS011;7282;49.204;10.652;2023-03-09T12:17:05;1.90;;;1.43;;
14394;SDS011;7282;49.204;10.652;2023-03-09T12:19:32;3.10;;;1.80;;
14394;SDS011;7282;49.204;10.652;2023-03-09T12:22:02;2.47;;;1.77;;
14394;SDS011;7282;49.204;10.652;2023-03-09T12:29:43;2.60;;;1.50;;
14394;SDS011;7282;49.204;10.652;2023-03-09T12:32:16;3.93;;;1.90;;
14394;SDS011;7282;49.204;10.652;2023-03-09T12:34:44;5.63;;;1.97;;
14394;SDS011;7282;49.204;10.652;2023-03-09T12:40:16;5.87;;;2.20;;
14394;SDS011;7282;49.204;10.652;2023-03-09T12:42:35;5.17;;;2.40;;
14394;SDS011;7282;49.204;10.652;2023-03-09T12:45:00;2.20;;;1.50;;
14394;SDS011;7282;49.204;10.652;2023-03-09T12:47:34;3.27;;;1.63;;
14394;SDS011;7282;49.204;10.652;2023-03-09T12:50:22;3.47;;;1.57;;
14394;SDS011;7282;49.204;10.652;2023-03-09T12:52:36;3.73;;;1.70;;
14394;SDS011;7282;49.204;10.652;2023-03-09T12:55:09;2.90;;;1.40;;
14394;SDS011;7282;49.204;10.652;2023-03-09T12:57:30;3.77;;;1.57;;
14394;SDS011;7282;49.204;10.652;2023-03-09T13:00:11;2.53;;;1.37;;
14394;SDS011;7282;49.204;10.652;2023-03-09T13:02:30;3.03;;;1.33;;
14394;SDS011;7282;49.204;10.652;2023-03-09T13:05:19;3.17;;;1.50;;
14394;SDS011;7282;49.204;10.652;2023-03-09T13:07:41;5.53;;;1.47;;
14394;SDS011;7282;49.204;10.652;2023-03-09T13:10:18;2.23;;;1.20;;
14394;SDS011;7282;49.204;10.652;2023-03-09T13:12:37;5.47;;;1.80;;
14394;SDS011;7282;49.204;10.652;2023-03-09T13:15:06;4.47;;;1.60;;
14394;SDS011;7282;49.204;10.652;2023-03-09T13:20:17;3.20;;;1.30;;
14394;SDS011;7282;49.204;10.652;2023-03-09T13:22:44;3.40;;;1.40;;
14394;SDS011;7282;49.204;10.652;2023-03-09T13:25:34;5.23;;;1.37;;
14394;SDS011;7282;49.204;10.652;2023-03-09T13:27:39;2.37;;;1.40;;
14394;SDS011;7282;49.204;10.652;2023-03-09T13:30:17;2.13;;;1.30;;
14394;SDS011;7282;49.204;10.652;2023-03-09T13:35:28;1.87;;;1.10;;
14394;SDS011;7282;49.204;10.652;2023-03-09T13:37:56;4.27;;;1.40;;
14394;SDS011;7282;49.204;10.652;2023-03-09T13:42:52;2.53;;;1.60;;
14394;SDS011;7282;49.204;10.652;2023-03-09T13:45:24;5.00;;;1.20;;
14394;SDS011;7282;49.204;10.652;2023-03-09T13:50:45;4.43;;;1.20;;
14394;SDS011;7282;49.204;10.652;2023-03-09T13:56:00;2.73;;;1.30;;
14394;SDS011;7282;49.204;10.652;2023-03-09T13:58:28;1.37;;;1.23;;
14394;SDS011;7282;49.204;10.652;2023-03-09T14:00:56;2.23;;;1.20;;
14394;SDS011;7282;49.204;10.652;2023-03-09T14:03:24;2.33;;;1.13;;
14394;SDS011;7282;49.204;10.652;2023-03-09T14:08:23;3.40;;;1.17;;
14394;SDS011;7282;49.204;10.652;2023-03-09T14:10:50;3.27;;;1.50;;
14394;SDS011;7282;49.204;10.652;2023-03-09T14:13:20;2.53;;;1.27;;
14394;SDS011;7282;49.204;10.652;2023-03-09T14:15:57;1.43;;;1.10;;
14394;SDS011;7282;49.204;10.652;2023-03-09T14:18:36;5.03;;;1.60;;
14394;SDS011;7282;49.204;10.652;2023-03-09T14:21:03;3.17;;;1.37;;
14394;SDS011;7282;49.204;10.652;2023-03-09T14:23:36;3.17;;;1.70;;
14394;SDS011;7282;49.204;10.652;2023-03-09T14:26:01;2.50;;;1.40;;
14394;SDS011;7282;49.204;10.652;2023-03-09T14:28:29;1.80;;;1.30;;
14394;SDS011;7282;49.204;10.652;2023-03-09T14:31:07;16.70;;;3.30;;
14394;SDS011;7282;49.204;10.652;2023-03-09T14:33:26;1.47;;;1.17;;
14394;SDS011;7282;49.204;10.652;2023-03-09T14:36:04;2.87;;;1.20;;
14394;SDS011;7282;49.204;10.652;2023-03-09T14:38:28;1.33;;;0.90;;
14394;SDS011;7282;49.204;10.652;2023-03-09T14:41:02;1.60;;;1.07;;
14394;SDS011;7282;49.204;10.652;2023-03-09T14:43:33;2.43;;;1.00;;
14394;SDS011;7282;49.204;10.652;2023-03-09T14:46:15;2.53;;;1.20;;
14394;SDS011;7282;49.204;10.652;2023-03-09T14:48:38;4.67;;;1.60;;
14394;SDS011;7282;49.204;10.652;2023-03-09T14:51:08;4.13;;;1.50;;
14394;SDS011;7282;49.204;10.652;2023-03-09T14:53:47;2.43;;;1.97;;
14394;SDS011;7282;49.204;10.652;2023-03-09T14:56:06;5.43;;;2.87;;
14394;SDS011;7282;49.204;10.652;2023-03-09T14:58:34;7.00;;;4.27;;
14394;SDS011;7282;49.204;10.652;2023-03-09T15:01:01;3.23;;;1.97;;
14394;SDS011;7282;49.204;10.652;2023-03-09T15:03:28;6.93;;;2.67;;
14394;SDS011;7282;49.204;10.652;2023-03-09T15:05:54;6.97;;;2.37;;
14394;SDS011;7282;49.204;10.652;2023-03-09T15:08:21;3.70;;;2.00;;
14394;SDS011;7282;49.204;10.652;2023-03-09T15:10:48;4.40;;;2.27;;
14394;SDS011;7282;49.204;10.652;2023-03-09T15:13:15;5.80;;;2.43;;
14394;SDS011;7282;49.204;10.652;2023-03-09T15:15:42;5.27;;;4.33;;
14394;SDS011;7282;49.204;10.652;2023-03-09T15:18:11;2.67;;;1.87;;
14394;SDS011;7282;49.204;10.652;2023-03-09T15:20:37;6.20;;;2.47;;
14394;SDS011;7282;49.204;10.652;2023-03-09T15:23:04;4.27;;;1.90;;
14394;SDS011;7282;49.204;10.652;2023-03-09T15:25:31;5.97;;;2.50;;
14394;SDS011;7282;49.204;10.652;2023-03-09T15:27:57;3.40;;;1.90;;
14394;SDS011;7282;49.204;10.652;2023-03-09T15:30:24;3.23;;;1.83;;
14394;SDS011;7282;49.204;10.652;2023-03-09T15:32:51;3.07;;;2.00;;
14394;SDS011;7282;49.204;10.652;2023-03-09T15:35:19;3.90;;;1.73;;
14394;SDS011;7282;49.204;10.652;2023-03-09T15:37:46;4.90;;;1.90;;
14394;SDS011;7282;49.204;10.652;2023-03-09T15:40:14;4.13;;;1.70;;
14394;SDS011;7282;49.204;10.652;2023-03-09T15:42:41;4.20;;;2.00;;